Time;durP1;ratioP1;P1;durP2;ratioP2;P2;SDS_P1;SDS_P2;PMS_P1;PMS_P2;Temp;Humidity;BMP_temperature;BMP_pressure;BME280_temperature;BME280_humidity;BME280_pressure;Samples;Min_cycle;Max_cycle;Signal;HPM_P1;HPM_P2
2022/06/27 00:00:01;;;;;;;4.28;2.45;;;;;;;17.69;96.92;100356.41;5036562;28;20038;-73
2022/06/27 00:02:26;;;;;;;2.58;1.80;;;;;;;17.74;96.62;100356.63;5031049;28;20041;-73
2022/06/27 00:04:52;;;;;;;4.45;2.13;;;;;;;17.79;96.91;100361.38;5034520;28;20048;-72
2022/06/27 00:07:18;;;;;;;4.47;2.67;;;;;;;17.78;96.70;100362.38;5029850;28;20045;-73
2022/06/27 00:09:43;;;;;;;3.85;2.28;;;;;;;17.76;95.85;100378.66;5030161;28;20065;-72
2022/06/27 00:12:09;;;;;;;3.78;2.10;;;;;;;17.77;95.46;100415.06;5026784;28;20127;-73
2022/06/27 00:14:35;;;;;;;5.15;2.97;;;;;;;17.72;97.49;100465.66;5027896;28;20037;-72
2022/06/27 00:17:01;;;;;;;4.78;3.15;;;;;;;17.72;97.61;100499.59;5029114;28;20125;-72
2022/06/27 00:19:26;;;;;;;6.30;3.47;;;;;;;17.67;98.41;100510.91;5028704;28;20159;-73
2022/06/27 00:21:51;;;;;;;5.80;3.30;;;;;;;17.56;100.00;100504.25;5030537;28;20053;-72
2022/06/27 00:24:17;;;;;;;5.05;2.70;;;;;;;17.54;100.00;100452.00;5028718;28;20036;-72
2022/06/27 00:26:42;;;;;;;3.75;2.67;;;;;;;17.53;98.46;100448.50;5031902;28;20034;-72
2022/06/27 00:29:07;;;;;;;5.53;2.50;;;;;;;17.56;98.20;100452.63;5031622;28;20041;-72
2022/06/27 00:31:33;;;;;;;5.03;2.25;;;;;;;17.53;99.32;100447.69;5031287;28;20041;-72
2022/06/27 00:33:58;;;;;;;3.13;2.08;;;;;;;17.53;99.28;100418.28;5031160;28;20025;-72
2022/06/27 00:36:24;;;;;;;3.08;2.00;;;;;;;17.51;99.15;100402.44;5038032;28;20033;-71
2022/06/27 00:38:49;;;;;;;4.28;1.77;;;;;;;17.53;98.87;100379.00;5028236;28;20056;-72
2022/06/27 00:41:14;;;;;;;4.25;2.30;;;;;;;17.57;98.88;100388.25;5033065;28;20041;-72
2022/06/27 00:43:44;;;;;;;3.72;2.50;;;;;;;17.61;98.61;100391.34;5028834;28;20284;-72
2022/06/27 00:46:10;;;;;;;5.85;2.10;;;;;;;17.63;98.87;100397.31;5028605;28;20042;-72
2022/06/27 00:48:36;;;;;;;3.75;2.00;;;;;;;17.62;99.48;100415.22;5030838;28;20051;-73
2022/06/27 00:51:02;;;;;;;3.03;1.42;;;;;;;17.66;99.67;100415.63;5036321;28;20037;-72
2022/06/27 00:53:28;;;;;;;2.85;1.60;;;;;;;17.68;98.86;100423.47;5027316;28;20033;-73
2022/06/27 00:55:55;;;;;;;2.40;1.60;;;;;;;17.69;99.36;100433.97;5029457;28;20432;-73
2022/06/27 00:58:20;;;;;;;3.70;1.80;;;;;;;17.71;98.65;100433.75;5027054;28;20056;-72
2022/06/27 01:00:45;;;;;;;4.35;2.20;;;;;;;17.73;98.21;100439.72;5027093;28;20155;-73
2022/06/27 01:03:10;;;;;;;4.40;2.30;;;;;;;17.68;98.57;100444.84;5029097;28;20049;-73
2022/06/27 01:05:36;;;;;;;4.18;2.53;;;;;;;17.65;99.08;100442.59;5034731;28;20048;-72
2022/06/27 01:08:01;;;;;;;3.17;1.75;;;;;;;17.65;99.71;100432.72;5028973;28;20133;-72
2022/06/27 01:10:26;;;;;;;3.50;2.00;;;;;;;17.64;100.00;100431.06;5028292;28;20399;-72
2022/06/27 01:12:52;;;;;;;3.95;2.10;;;;;;;17.67;99.51;100438.69;5028733;28;20120;-72
2022/06/27 01:15:17;;;;;;;3.90;2.45;;;;;;;17.70;99.55;100408.88;5029383;28;20044;-73
2022/06/27 01:17:43;;;;;;;3.55;2.47;;;;;;;17.69;100.00;100383.16;5031547;28;20038;-73
2022/06/27 01:20:09;;;;;;;3.90;2.10;;;;;;;17.65;100.00;100332.97;5031857;28;20045;-73
2022/06/27 01:22:34;;;;;;;5.22;2.60;;;;;;;17.63;100.00;100275.13;5028511;28;20025;-72
2022/06/27 01:25:00;;;;;;;5.35;2.83;;;;;;;17.59;100.00;100249.88;5027695;28;20131;-72
2022/06/27 01:27:25;;;;;;;4.43;2.78;;;;;;;17.57;100.00;100249.25;5027715;28;20123;-73
2022/06/27 01:29:51;;;;;;;3.53;2.40;;;;;;;17.54;100.00;100236.28;5031338;28;20035;-72
2022/06/27 01:32:16;;;;;;;4.88;2.72;;;;;;;17.54;100.00;100236.28;5026330;28;20120;-72
2022/06/27 01:34:41;;;;;;;4.15;2.60;;;;;;;17.57;100.00;100241.22;5027735;28;20030;-72
2022/06/27 01:37:06;;;;;;;4.75;2.78;;;;;;;17.56;100.00;100228.84;5031856;28;20045;-72
2022/06/27 01:39:32;;;;;;;3.28;2.67;;;;;;;17.57;100.00;100214.47;5028462;28;20033;-73
2022/06/27 01:42:00;;;;;;;3.60;2.75;;;;;;;17.60;100.00;100186.50;5026460;28;20518;-72
2022/06/27 01:44:29;;;;;;;3.17;2.72;;;;;;;17.61;100.00;100154.22;5025038;28;20398;-72
2022/06/27 01:47:03;;;;;;;3.28;2.30;;;;;;;17.63;100.00;100127.25;5027467;28;20037;-73
2022/06/27 01:49:30;;;;;;;3.33;2.47;;;;;;;17.66;100.00;100118.81;5028198;28;20435;-73
2022/06/27 01:51:57;;;;;;;4.72;3.10;;;;;;;17.69;100.00;100109.59;5026609;28;20064;-73
2022/06/27 01:54:23;;;;;;;5.15;3.88;;;;;;;17.72;100.00;100101.94;5026361;28;20041;-73
2022/06/27 01:56:51;;;;;;;5.38;4.07;;;;;;;17.73;100.00;100092.91;5026855;28;20038;-73
2022/06/27 01:59:19;;;;;;;5.05;4.20;;;;;;;17.75;100.00;100090.00;5027305;28;20073;-73
2022/06/27 02:01:44;;;;;;;4.72;3.97;;;;;;;17.73;100.00;100097.41;5027002;28;20079;-73
2022/06/27 02:04:12;;;;;;;4.65;3.90;;;;;;;17.72;100.00;100109.16;5025877;28;20029;-73
2022/06/27 02:06:39;;;;;;;3.97;3.58;;;;;;;17.73;100.00;100110.78;5029910;28;20083;-72
2022/06/27 02:09:06;;;;;;;4.03;3.35;;;;;;;17.71;100.00;100131.56;5027237;28;20044;-73
2022/06/27 02:11:33;;;;;;;3.97;3.35;;;;;;;17.71;100.00;100135.09;5026273;28;20363;-73
2022/06/27 02:13:58;;;;;;;3.72;3.42;;;;;;;17.69;100.00;100152.38;5027558;28;20483;-72
2022/06/27 02:16:24;;;;;;;3.78;3.38;;;;;;;17.69;100.00;100169.22;5026899;28;20038;-72
2022/06/27 02:18:50;;;;;;;4.65;3.40;;;;;;;17.65;100.00;100173.34;5028102;28;20151;-72
2022/06/27 02:21:26;;;;;;;4.00;3.10;;;;;;;17.72;100.00;100184.84;5026365;28;20037;-73
2022/06/27 02:23:53;;;;;;;3.60;3.08;;;;;;;17.74;100.00;100190.81;5022611;28;20037;-73
2022/06/27 02:26:28;;;;;;;3.67;3.28;;;;;;;17.74;100.00;100195.34;5026276;28;20517;-73
2022/06/27 02:28:54;;;;;;;2.95;2.58;;;;;;;17.75;100.00;100195.13;5024794;28;20113;-73
2022/06/27 02:31:20;;;;;;;3.10;2.72;;;;;;;17.77;100.00;100186.91;5026183;28;20083;-73
2022/06/27 02:33:47;;;;;;;2.60;2.40;;;;;;;17.78;100.00;100176.00;5027685;28;20071;-73
2022/06/27 02:36:17;;;;;;;2.80;2.50;;;;;;;17.80;100.00;100179.34;5025763;28;20033;-72
2022/06/27 02:38:44;;;;;;;2.85;2.40;;;;;;;17.83;100.00;100172.75;5027543;28;20092;-73
2022/06/27 02:41:14;;;;;;;3.50;3.20;;;;;;;17.81;100.00;100154.22;5031351;28;20111;-73
2022/06/27 02:43:41;;;;;;;3.70;2.72;;;;;;;17.83;100.00;100130.78;5027449;28;20029;-73
2022/06/27 02:46:08;;;;;;;2.53;2.33;;;;;;;17.86;100.00;100118.81;5029782;28;20506;-73
2022/06/27 02:48:35;;;;;;;2.47;2.28;;;;;;;17.85;100.00;100125.19;5030157;28;20101;-73
2022/06/27 02:51:07;;;;;;;3.00;2.58;;;;;;;17.80;100.00;100130.31;5026971;28;19970;-73
2022/06/27 02:53:35;;;;;;;3.83;2.42;;;;;;;17.75;100.00;100138.97;5026524;28;20026;-73
2022/06/27 02:56:03;;;;;;;2.67;2.38;;;;;;;17.71;100.00;100145.78;5026591;28;20434;-73
2022/06/27 02:58:42;;;;;;;2.20;2.00;;;;;;;17.68;100.00;100148.84;5026373;28;20402;-73
2022/06/27 03:01:09;;;;;;;2.30;2.10;;;;;;;17.67;100.00;100155.25;5025997;28;20038;-73
2022/06/27 03:03:36;;;;;;;2.25;1.92;;;;;;;17.66;100.00;100155.44;5026563;28;20057;-73
2022/06/27 03:06:06;;;;;;;2.15;1.95;;;;;;;17.63;100.00;100162.84;5027293;28;20091;-73
2022/06/27 03:08:46;;;;;;;2.55;2.30;;;;;;;17.63;100.00;100176.22;5027334;28;20041;-73
2022/06/27 03:11:17;;;;;;;3.95;3.40;;;;;;;17.61;100.00;100172.94;5026823;28;20038;-72
2022/06/27 03:13:45;;;;;;;3.47;2.95;;;;;;;17.60;100.00;100176.63;5026991;28;20040;-73
2022/06/27 03:16:10;;;;;;;3.88;3.47;;;;;;;17.56;100.00;100179.91;5024179;28;20113;-73
2022/06/27 03:18:36;;;;;;;4.13;2.80;;;;;;;17.54;100.00;100193.50;5026042;28;20464;-73
2022/06/27 03:21:03;;;;;;;3.10;2.80;;;;;;;17.53;100.00;100194.53;5025115;28;20145;-73
2022/06/27 03:23:28;;;;;;;3.40;3.10;;;;;;;17.53;100.00;100189.19;5025589;28;20040;-73
2022/06/27 03:25:54;;;;;;;3.83;3.40;;;;;;;17.52;100.00;100190.22;5031328;28;20029;-72
2022/06/27 03:28:20;;;;;;;3.13;2.80;;;;;;;17.51;100.00;100182.38;5030344;28;20502;-73
2022/06/27 03:30:47;;;;;;;3.08;2.78;;;;;;;17.51;100.00;100172.50;5031101;28;20030;-73
2022/06/27 03:33:12;;;;;;;3.33;2.90;;;;;;;17.51;100.00;100169.84;5030339;28;20026;-73
2022/06/27 03:35:38;;;;;;;3.47;2.60;;;;;;;17.56;100.00;100159.34;5030840;28;20033;-73
2022/06/27 03:38:03;;;;;;;4.35;3.42;;;;;;;17.57;100.00;100165.53;5031477;28;20037;-73
2022/06/27 03:40:29;;;;;;;3.17;2.60;;;;;;;17.61;100.00;100174.78;5032696;28;20398;-73
2022/06/27 03:42:54;;;;;;;4.93;3.42;;;;;;;17.63;100.00;100180.75;5031072;28;20124;-73
2022/06/27 03:45:19;;;;;;;3.92;2.90;;;;;;;17.64;100.00;100190.44;5030176;28;20128;-73
2022/06/27 03:47:50;;;;;;;4.13;2.78;;;;;;;17.62;100.00;100182.59;5031307;28;20044;-73
2022/06/27 03:50:21;;;;;;;3.17;2.30;;;;;;;17.62;100.00;100177.25;5029889;28;20037;-73
2022/06/27 03:52:47;;;;;;;2.55;1.85;;;;;;;17.60;100.00;100192.66;5030851;28;20152;-73
2022/06/27 03:55:13;;;;;;;3.65;2.15;;;;;;;17.56;100.00;100207.47;5029366;28;20370;-73
2022/06/27 03:57:46;;;;;;;2.47;1.90;;;;;;;17.57;100.00;100222.50;5031160;28;20389;-73
2022/06/27 04:00:12;;;;;;;2.30;1.92;;;;;;;17.63;100.00;100244.91;5029555;28;20038;-73
2022/06/27 04:02:37;;;;;;;2.90;2.38;;;;;;;17.72;100.00;100237.53;5028678;28;20140;-73
2022/06/27 04:05:03;;;;;;;3.47;2.17;;;;;;;17.78;100.00;100239.34;5030759;28;20061;-73
2022/06/27 04:07:29;;;;;;;2.67;2.05;;;;;;;17.83;100.00;100234.25;5030658;28;20076;-73
2022/06/27 04:09:55;;;;;;;2.80;2.00;;;;;;;17.90;100.00;100239.59;5030599;28;20064;-73
2022/06/27 04:12:20;;;;;;;2.63;2.00;;;;;;;17.93;100.00;100245.38;5031379;28;20485;-74
2022/06/27 04:14:45;;;;;;;4.07;2.90;;;;;;;17.99;100.00;100249.88;5030333;28;20389;-73
2022/06/27 04:17:11;;;;;;;5.07;3.72;;;;;;;18.03;100.00;100272.50;5030417;28;20494;-74
2022/06/27 04:19:36;;;;;;;5.78;4.60;;;;;;;18.08;100.00;100266.53;5030609;28;20033;-73
2022/06/27 04:22:02;;;;;;;6.40;4.40;;;;;;;18.12;100.00;100272.31;5028999;28;20037;-73
2022/06/27 04:24:27;;;;;;;4.70;3.65;;;;;;;18.16;100.00;100285.06;5028546;28;20040;-73
2022/06/27 04:26:52;;;;;;;3.80;3.22;;;;;;;18.20;100.00;100293.50;5026845;28;20037;-73
2022/06/27 04:29:18;;;;;;;5.47;4.15;;;;;;;18.24;100.00;100284.84;5029676;28;20509;-73
2022/06/27 04:31:43;;;;;;;5.10;3.95;;;;;;;18.30;100.00;100287.72;5030201;28;20398;-73
2022/06/27 04:34:12;;;;;;;4.72;3.15;;;;;;;18.35;100.00;100296.78;5028832;28;20112;-73
2022/06/27 04:36:37;;;;;;;4.90;3.50;;;;;;;18.38;100.00;100293.69;5030087;28;20656;-73
2022/06/27 04:39:03;;;;;;;4.65;3.00;;;;;;;18.44;100.00;100289.34;5030989;28;20112;-73
2022/06/27 04:41:29;;;;;;;3.38;2.55;;;;;;;18.50;100.00;100299.22;5028235;28;20030;-74
2022/06/27 04:43:54;;;;;;;3.83;3.10;;;;;;;18.55;100.00;100293.25;5028983;28;20030;-73
2022/06/27 04:46:20;;;;;;;9.55;3.15;;;;;;;18.61;100.00;100293.19;5029732;28;20053;-74
2022/06/27 04:48:46;;;;;;;3.35;2.80;;;;;;;18.72;100.00;100285.56;5029837;28;20029;-74
2022/06/27 04:51:14;;;;;;;2.65;2.00;;;;;;;18.83;100.00;100276.88;5028861;28;20038;-73
2022/06/27 04:53:39;;;;;;;3.03;2.50;;;;;;;18.95;100.00;100277.03;5027926;28;20048;-74
2022/06/27 04:56:06;;;;;;;3.78;2.80;;;;;;;19.06;99.78;100279.06;5030057;28;20033;-73
2022/06/27 04:58:31;;;;;;;4.80;3.25;;;;;;;19.13;99.61;100289.75;5028174;28;20049;-74
2022/06/27 05:00:56;;;;;;;4.28;3.40;;;;;;;19.17;99.24;100297.16;5028568;28;20045;-73
2022/06/27 05:03:23;;;;;;;4.13;3.55;;;;;;;19.20;99.23;100307.44;5029353;28;20040;-73
2022/06/27 05:05:50;;;;;;;7.50;4.53;;;;;;;19.22;98.92;100323.31;5029320;28;20042;-73
2022/06/27 05:08:16;;;;;;;4.05;3.13;;;;;;;19.25;98.97;100312.97;5028234;28;20041;-74
2022/06/27 05:10:41;;;;;;;4.50;3.88;;;;;;;19.37;98.41;100325.72;5029531;28;20041;-73
2022/06/27 05:13:06;;;;;;;5.30;4.75;;;;;;;19.42;97.77;100340.13;5029009;28;20091;-73
2022/06/27 05:15:32;;;;;;;5.75;5.13;;;;;;;19.50;97.27;100347.13;5027595;28;20038;-73
2022/06/27 05:17:57;;;;;;;5.38;4.70;;;;;;;19.56;96.79;100343.56;5029767;28;20044;-73
2022/06/27 05:20:22;;;;;;;3.95;3.38;;;;;;;19.59;96.81;100332.38;5027232;28;20490;-73
2022/06/27 05:22:48;;;;;;;3.05;2.50;;;;;;;19.62;96.23;100323.94;5028627;28;20121;-74
2022/06/27 05:25:13;;;;;;;4.00;2.07;;;;;;;19.67;95.53;100310.69;5028584;28;20490;-73
2022/06/27 05:27:38;;;;;;;3.20;2.17;;;;;;;19.55;95.49;100306.25;5028968;28;20296;-73
2022/06/27 05:30:05;;;;;;;2.95;1.80;;;;;;;19.46;95.84;100327.13;5026939;28;20037;-73
2022/06/27 05:32:30;;;;;;;2.00;1.40;;;;;;;19.41;96.49;100333.13;5027787;28;20043;-73
2022/06/27 05:34:56;;;;;;;2.88;1.95;;;;;;;19.42;96.38;100329.38;5028023;28;20038;-73
2022/06/27 05:37:21;;;;;;;2.60;2.00;;;;;;;19.48;96.63;100338.47;5029237;28;20049;-73
2022/06/27 05:39:46;;;;;;;3.78;2.15;;;;;;;19.56;96.21;100330.16;5029711;28;20052;-73
2022/06/27 05:42:12;;;;;;;3.00;2.70;;;;;;;19.62;96.14;100328.47;5026243;28;20165;-73
2022/06/27 05:44:37;;;;;;;2.25;2.00;;;;;;;19.79;95.88;100334.19;5028508;28;20037;-73
2022/06/27 05:47:03;;;;;;;3.00;1.73;;;;;;;19.95;95.53;100328.28;5028570;28;20391;-73
2022/06/27 05:49:28;;;;;;;2.50;2.13;;;;;;;20.15;95.02;100339.66;5028782;28;20041;-73
2022/06/27 05:51:57;;;;;;;2.80;2.50;;;;;;;20.27;94.33;100339.75;5027623;28;20060;-73
2022/06/27 05:54:24;;;;;;;4.30;3.00;;;;;;;20.19;93.22;100340.06;5023747;28;20040;-73
2022/06/27 05:56:50;;;;;;;4.28;2.97;;;;;;;20.18;93.11;100357.19;5027556;28;20038;-73
2022/06/27 05:59:17;;;;;;;3.97;2.70;;;;;;;20.22;93.22;100366.47;5028708;28;20037;-74
2022/06/27 06:01:43;;;;;;;2.97;2.33;;;;;;;20.29;92.97;100358.34;5026863;28;20518;-73
2022/06/27 06:04:08;;;;;;;3.08;2.10;;;;;;;20.38;92.64;100367.78;5027755;28;20040;-73
2022/06/27 06:06:34;;;;;;;2.10;1.65;;;;;;;20.49;92.41;100367.03;5027193;28;20406;-73
2022/06/27 06:09:01;;;;;;;2.58;2.33;;;;;;;20.52;91.56;100369.31;5028535;28;20072;-73
2022/06/27 06:11:27;;;;;;;2.47;1.90;;;;;;;20.55;91.51;100373.41;5027176;28;20044;-73
2022/06/27 06:13:53;;;;;;;2.85;1.88;;;;;;;20.60;91.29;100367.41;5026473;28;20040;-73
2022/06/27 06:16:20;;;;;;;1.92;1.60;;;;;;;20.64;90.86;100374.81;5028119;28;20069;-73
2022/06/27 06:18:50;;;;;;;1.50;1.30;;;;;;;20.69;90.71;100390.22;5028323;28;20341;-73
2022/06/27 06:21:16;;;;;;;3.05;2.10;;;;;;;20.63;90.85;100391.13;5029073;28;20065;-73
2022/06/27 06:23:41;;;;;;;2.17;1.60;;;;;;;20.56;90.69;100385.81;5025950;28;20087;-73
2022/06/27 06:26:07;;;;;;;2.08;1.60;;;;;;;20.48;90.63;100380.72;5029622;28;20046;-73
2022/06/27 06:28:32;;;;;;;1.70;1.40;;;;;;;20.43;90.50;100378.69;5030548;28;20029;-73
2022/06/27 06:30:57;;;;;;;2.42;1.90;;;;;;;20.37;90.39;100375.00;5026288;28;20391;-74
2022/06/27 06:33:23;;;;;;;2.05;1.55;;;;;;;20.38;90.62;100391.94;5026965;28;20116;-75
2022/06/27 06:35:49;;;;;;;1.70;1.30;;;;;;;20.38;90.32;100386.56;5018980;28;20073;-73
2022/06/27 06:38:15;;;;;;;2.42;1.90;;;;;;;20.33;89.72;100383.69;5022811;28;20049;-73
2022/06/27 06:40:40;;;;;;;1.60;1.33;;;;;;;20.31;89.86;100372.38;5020186;28;20045;-73
2022/06/27 06:43:06;;;;;;;2.28;1.83;;;;;;;20.27;90.03;100389.97;5023176;28;20076;-73
2022/06/27 06:45:31;;;;;;;2.70;1.90;;;;;;;20.31;90.34;100394.69;5026921;28;20049;-72
2022/06/27 06:47:57;;;;;;;1.80;1.50;;;;;;;20.44;90.02;100396.44;5028305;28;20415;-73
2022/06/27 06:50:23;;;;;;;2.42;1.80;;;;;;;20.51;89.91;100399.06;5025800;28;20041;-74
2022/06/27 06:52:49;;;;;;;1.73;1.40;;;;;;;20.61;90.11;100403.97;5026014;28;20065;-73
2022/06/27 06:55:16;;;;;;;1.70;1.27;;;;;;;20.73;89.74;100404.88;5024148;28;20498;-74
2022/06/27 06:57:41;;;;;;;2.13;1.50;;;;;;;20.80;89.65;100397.56;5023418;28;20536;-74
2022/06/27 07:00:08;;;;;;;2.50;1.50;;;;;;;20.94;89.13;100404.44;5024039;28;20045;-73
2022/06/27 07:02:34;;;;;;;3.35;2.00;;;;;;;20.87;88.54;100392.13;5024573;28;20044;-73
2022/06/27 07:05:02;;;;;;;2.60;2.22;;;;;;;20.93;87.56;100402.00;5024780;28;20845;-73
2022/06/27 07:07:28;;;;;;;2.38;1.70;;;;;;;20.71;88.78;100407.81;5024938;28;20055;-73
2022/06/27 07:09:54;;;;;;;2.35;1.50;;;;;;;20.69;89.10;100411.72;5026045;28;20030;-73
2022/06/27 07:12:19;;;;;;;2.03;1.52;;;;;;;20.58;89.48;100408.72;5024706;28;20033;-74
2022/06/27 07:14:48;;;;;;;2.58;1.73;;;;;;;20.45;90.28;100416.03;5024636;28;20064;-73
2022/06/27 07:17:13;;;;;;;1.85;1.55;;;;;;;20.41;90.46;100417.53;5023535;28;20038;-73
2022/06/27 07:19:39;;;;;;;2.65;1.65;;;;;;;20.42;90.39;100421.84;5028548;28;20048;-73
2022/06/27 07:22:07;;;;;;;2.00;1.70;;;;;;;20.50;90.45;100429.66;5027139;28;20052;-73
2022/06/27 07:24:33;;;;;;;2.15;1.70;;;;;;;20.60;90.61;100431.88;5026866;28;20038;-72
2022/06/27 07:26:59;;;;;;;3.07;1.57;;;;;;;20.78;89.67;100437.28;5024894;28;20045;-72
2022/06/27 07:29:26;;;;;;;1.70;1.50;;;;;;;20.86;89.66;100433.50;5025122;28;20320;-73
2022/06/27 07:31:52;;;;;;;1.77;1.50;;;;;;;20.96;89.71;100433.81;5024624;28;20068;-74
2022/06/27 07:34:21;;;;;;;2.08;1.80;;;;;;;21.05;89.84;100434.34;5026323;28;20248;-73
2022/06/27 07:36:46;;;;;;;1.98;1.77;;;;;;;21.31;88.79;100425.13;5024963;28;20099;-73
2022/06/27 07:39:12;;;;;;;2.85;2.05;;;;;;;21.53;87.07;100406.69;5028051;28;20534;-73
2022/06/27 07:41:37;;;;;;;2.60;2.25;;;;;;;21.54;86.70;100394.88;5024935;28;20087;-73
2022/06/27 07:44:03;;;;;;;2.37;2.07;;;;;;;21.68;86.52;100387.47;5022314;28;20418;-74
2022/06/27 07:46:31;;;;;;;2.08;1.88;;;;;;;21.76;86.64;100389.81;5023161;28;20465;-74
2022/06/27 07:48:57;;;;;;;1.88;1.45;;;;;;;21.68;87.37;100388.28;5025979;28;20454;-74
2022/06/27 07:51:22;;;;;;;4.10;3.00;;;;;;;21.80;85.84;100399.06;5025018;28;20064;-74
2022/06/27 07:53:49;;;;;;;3.53;2.13;;;;;;;22.16;85.24;100418.84;5025143;28;20286;-74
2022/06/27 07:56:16;;;;;;;2.42;2.00;;;;;;;22.60;84.57;100422.09;5027073;28;20293;-74
2022/06/27 07:58:42;;;;;;;2.42;1.83;;;;;;;23.25;83.47;100421.13;5025367;28;20084;-73
2022/06/27 08:01:10;;;;;;;2.35;1.98;;;;;;;23.58;82.62;100406.97;5025917;28;20104;-74
2022/06/27 08:03:36;;;;;;;2.45;1.77;;;;;;;23.91;81.47;100418.94;5024349;28;20296;-76
2022/06/27 08:06:05;;;;;;;2.40;1.77;;;;;;;24.12;80.76;100420.94;5025880;28;20038;-74
2022/06/27 08:08:33;;;;;;;2.10;1.90;;;;;;;24.51;78.57;100429.16;5025863;28;20036;-74
2022/06/27 08:10:59;;;;;;;3.30;2.42;;;;;;;24.81;76.36;100425.25;5027404;28;20064;-73
2022/06/27 08:13:26;;;;;;;3.50;2.83;;;;;;;24.73;75.48;100431.09;5029768;28;20068;-74
2022/06/27 08:15:53;;;;;;;3.80;2.60;;;;;;;24.55;76.00;100429.47;5030121;28;20044;-74
2022/06/27 08:18:19;;;;;;;3.25;2.35;;;;;;;24.06;77.05;100448.09;5030144;28;20494;-74
2022/06/27 08:20:48;;;;;;;2.78;2.10;;;;;;;23.58;77.73;100455.53;5029259;28;20164;-74
2022/06/27 08:23:13;;;;;;;;;;;;;;;22.95;78.34;100454.44;5029502;28;20144;-72
2022/06/27 08:25:39;;;;;;;2.63;2.00;;;;;;;22.58;79.31;100448.47;5029493;28;19921;-73
2022/06/27 08:28:05;;;;;;;2.55;2.17;;;;;;;22.27;80.07;100459.31;5029607;28;20098;-74
2022/06/27 08:30:31;;;;;;;2.08;1.70;;;;;;;22.16;80.83;100464.63;5027445;28;20963;-74
2022/06/27 08:32:58;;;;;;;3.00;2.20;;;;;;;21.81;81.91;100457.25;5028889;28;20029;-73
2022/06/27 08:35:24;;;;;;;2.95;2.30;;;;;;;21.57;82.56;100473.28;5029866;28;20107;-74
2022/06/27 08:37:54;;;;;;;2.88;2.30;;;;;;;21.33;83.08;100474.16;5030388;28;20057;-74
2022/06/27 08:40:20;;;;;;;2.97;2.65;;;;;;;21.10;84.12;100483.69;5029957;28;20399;-73
2022/06/27 08:42:47;;;;;;;2.58;1.95;;;;;;;20.98;84.24;100485.47;5027025;28;20084;-74
2022/06/27 08:45:15;;;;;;;3.13;2.50;;;;;;;20.87;84.62;100483.50;5030217;28;20453;-73
2022/06/27 08:47:41;;;;;;;3.38;2.50;;;;;;;20.76;85.18;100485.88;5028302;28;20154;-73
2022/06/27 08:50:08;;;;;;;3.78;2.50;;;;;;;20.66;85.32;100498.16;5029284;28;20291;-73
2022/06/27 08:52:39;;;;;;;3.88;3.00;;;;;;;20.57;85.41;100501.13;5035077;28;20033;-73
2022/06/27 08:55:08;;;;;;;3.47;2.83;;;;;;;20.31;85.76;100502.09;5031189;28;20037;-73
2022/06/27 08:57:36;;;;;;;2.50;2.05;;;;;;;20.09;86.45;100496.25;5028795;28;20035;-73
2022/06/27 09:00:06;;;;;;;3.65;2.67;;;;;;;19.90;87.65;100495.31;5027966;28;20041;-73
2022/06/27 09:02:41;;;;;;;3.30;2.60;;;;;;;19.80;89.09;100486.88;5028877;28;20307;-73
2022/06/27 09:05:15;;;;;;;3.90;3.08;;;;;;;19.96;88.37;100480.19;5028814;28;20046;-73
2022/06/27 09:08:02;;;;;;;3.08;2.58;;;;;;;20.16;89.61;100493.50;5029116;28;20041;-72
2022/06/27 09:10:36;;;;;;;5.38;4.00;;;;;;;20.62;91.42;100494.25;5026200;28;20064;-74
2022/06/27 09:13:02;;;;;;;4.07;3.30;;;;;;;20.76;90.23;100498.47;5029308;28;20049;-73
2022/06/27 09:15:46;;;;;;;3.65;3.00;;;;;;;20.88;89.65;100506.66;5029336;28;20592;-73
2022/06/27 09:18:15;;;;;;;3.10;2.67;;;;;;;21.15;89.23;100491.91;5026564;28;20137;-73
2022/06/27 09:20:48;;;;;;;2.65;2.10;;;;;;;21.43;88.72;100487.94;5029427;28;20087;-73
2022/06/27 09:23:31;;;;;;;2.85;2.00;;;;;;;22.19;87.10;100485.69;5025847;28;20056;-73
2022/06/27 09:26:02;;;;;;;2.42;2.10;;;;;;;22.42;85.23;100477.72;5028870;28;20099;-73
2022/06/27 09:28:40;;;;;;;2.00;1.80;;;;;;;22.36;85.32;100483.25;5026343;28;20056;-74
2022/06/27 09:31:10;;;;;;;2.20;1.90;;;;;;;22.29;85.45;100493.28;5025973;28;20033;-73
2022/06/27 09:33:38;;;;;;;2.70;1.55;;;;;;;22.24;85.50;100500.19;5028426;28;20087;-74
2022/06/27 09:36:11;;;;;;;2.55;2.10;;;;;;;22.13;85.34;100500.91;5028409;28;20029;-73
2022/06/27 09:38:44;;;;;;;2.63;2.03;;;;;;;21.91;85.88;100519.44;5028983;28;20033;-73
2022/06/27 09:41:12;;;;;;;2.35;2.00;;;;;;;21.73;86.79;100516.78;5027034;28;20473;-74
2022/06/27 09:43:42;;;;;;;3.25;2.40;;;;;;;22.01;86.72;100519.72;5028195;28;20048;-73
2022/06/27 09:46:08;;;;;;;3.45;2.60;;;;;;;22.28;85.29;100516.69;5026715;28;20050;-73
2022/06/27 09:48:34;;;;;;;3.72;2.58;;;;;;;22.32;84.64;100527.84;5026883;28;20037;-73
2022/06/27 09:51:01;;;;;;;2.00;1.80;;;;;;;22.44;84.04;100531.38;5028804;28;20091;-74
2022/06/27 09:53:27;;;;;;;2.05;1.75;;;;;;;22.45;84.18;100536.56;5027414;28;20064;-74
2022/06/27 09:55:54;;;;;;;2.80;1.90;;;;;;;22.60;83.85;100530.72;5028218;28;20069;-74
2022/06/27 09:58:20;;;;;;;3.35;2.40;;;;;;;22.83;82.49;100537.19;5026829;28;20053;-73
2022/06/27 10:00:47;;;;;;;2.53;2.22;;;;;;;22.77;81.76;100525.47;5026183;28;20486;-74
2022/06/27 10:03:13;;;;;;;3.05;2.20;;;;;;;22.69;81.75;100536.59;5027404;28;20041;-74
2022/06/27 10:05:39;;;;;;;3.58;2.55;;;;;;;22.60;81.68;100546.91;5027588;28;20047;-73
2022/06/27 10:08:05;;;;;;;2.65;2.05;;;;;;;22.50;81.71;100541.25;5025037;28;20516;-74
2022/06/27 10:10:51;;;;;;;3.67;1.98;;;;;;;22.38;82.18;100529.59;5030670;28;20045;-74
2022/06/27 10:13:17;;;;;;;2.97;2.00;;;;;;;22.18;83.09;100521.78;5029706;28;20521;-74
2022/06/27 10:15:43;;;;;;;1.77;1.60;;;;;;;22.19;84.03;100526.09;5038208;28;20040;-73
2022/06/27 10:18:08;;;;;;;2.88;1.58;;;;;;;23.52;82.08;100535.56;5028330;28;20030;-74
2022/06/27 10:20:38;;;;;;;2.67;1.67;;;;;;;24.99;79.08;100541.31;5025946;28;20029;-73
2022/06/27 10:23:03;;;;;;;2.38;1.90;;;;;;;27.33;73.42;100546.88;5028338;28;20140;-74
2022/06/27 10:25:29;;;;;;;3.43;1.70;;;;;;;28.67;68.28;100544.59;5030285;28;20124;-74
2022/06/27 10:28:09;;;;;;;;;;;;;;;29.72;58.25;100549.34;5029058;28;20498;-74
2022/06/27 10:30:56;;;;;;;4.50;1.58;;;;;;;31.73;57.15;100543.91;5029144;28;19951;-75
2022/06/27 10:33:25;;;;;;;2.10;1.40;;;;;;;30.56;54.38;100549.44;5022078;28;20809;-75
2022/06/27 10:36:02;;;;;;;2.08;1.60;;;;;;;28.92;59.62;100547.31;5025978;28;20038;-74
2022/06/27 10:38:27;;;;;;;;;;;;;;;27.45;62.76;100554.00;5029530;28;20038;-73
2022/06/27 10:40:54;;;;;;;;;;;;;;;26.68;65.92;100546.13;5026169;28;19982;-74
2022/06/27 10:43:38;;;;;;;;;;;;;;;26.61;65.64;100548.22;5025738;28;20369;-75
2022/06/27 10:46:09;;;;;;;2.90;1.38;;;;;;;26.72;66.27;100559.16;5027647;28;19921;-75
2022/06/27 10:48:35;;;;;;;;;;;;;;;26.11;65.81;100552.03;5027770;28;20029;-74
2022/06/27 10:51:22;;;;;;;2.20;1.85;;;;;;;25.12;67.74;100559.09;5028196;28;19920;-74
2022/06/27 10:54:07;;;;;;;4.75;2.35;;;;;;;24.25;69.95;100563.00;5026658;28;20522;-74
2022/06/27 10:56:41;;;;;;;2.60;2.20;;;;;;;23.79;70.76;100570.19;5019708;28;20419;-74
2022/06/27 10:59:28;;;;;;;2.10;1.80;;;;;;;23.45;71.24;100575.34;5026283;28;20411;-74
2022/06/27 11:01:53;;;;;;;2.10;1.83;;;;;;;23.14;72.36;100575.72;5022984;28;20411;-74
2022/06/27 11:04:36;;;;;;;2.03;1.60;;;;;;;22.84;73.21;100582.00;5025135;28;20422;-74
2022/06/27 11:07:04;;;;;;;3.08;2.42;;;;;;;;;;5024889;28;20038;-74
2022/06/27 11:09:44;;;;;;;4.32;2.60;;;;;;;21.94;75.96;100570.13;5025369;28;20034;-74
2022/06/27 11:12:11;;;;;;;2.92;2.08;;;;;;;21.72;76.76;100580.56;5024118;28;20033;-75
2022/06/27 11:14:50;;;;;;;3.20;2.60;;;;;;;21.50;77.48;100603.53;5027174;28;20402;-75
2022/06/27 11:17:40;;;;;;;9.95;6.03;;;;;;;21.04;80.15;100605.56;5022751;28;20064;-75
2022/06/27 11:20:18;;;;;;;10.48;6.55;;;;;;;20.77;80.17;100613.81;5025081;28;20426;-74
2022/06/27 11:22:46;;;;;;;;;;;;;;;20.54;81.63;100606.28;5026053;28;20037;-75
2022/06/27 11:25:12;;;;;;;;;;;;;;;20.34;81.65;100597.53;5023475;28;19968;-74